JBU113 KMCO-MMUN
Flight info
| Callsign | JBU113 |
|---|---|
| Flight time | N/A |
| Altitude | 38000 |
| Route | FSHUN4 PLUMR DCT INKES DCT KARTR DCT LULLS DCT CANOA UB879 NOSAT NOSAT1B |
| Aircraft | A21N/M-SDE2E3FGHIRWXY/LB1 |
Departure
| Time | 2026-04-22 19:34 |
|---|---|
| Airport | Orlando International Airport (KMCO) |
Arrival
| Time | N/A |
|---|---|
| Airport | Cancún International Airport (MMUN) |
| Time | Latitude | Longitude | Altitude | Speed | Heading |
|---|---|---|---|---|---|
| 2026-04-22 19:08 | 28.43540 | -81.31553 | 107 ft | 0 kts | 87° |
| 2026-04-22 19:16 | 28.43540 | -81.31554 | 107 ft | 0 kts | 87° |
| 2026-04-22 19:22 | 28.43540 | -81.31557 | 107 ft | 3 kts | 86° |
| 2026-04-22 19:22 | 28.43537 | -81.31586 | 107 ft | 4 kts | 68° |
| 2026-04-22 19:22 | 28.43525 | -81.31604 | 107 ft | 4 kts | 2° |
| 2026-04-22 19:23 | 28.43518 | -81.31601 | 107 ft | 1 kts | 314° |
| 2026-04-22 19:23 | 28.43516 | -81.31599 | 107 ft | 1 kts | 314° |
| 2026-04-22 19:28 | 28.43519 | -81.31603 | 107 ft | 2 kts | 314° |
| 2026-04-22 19:28 | 28.43537 | -81.31622 | 107 ft | 5 kts | 323° |
| 2026-04-22 19:28 | 28.43581 | -81.31640 | 107 ft | 8 kts | 354° |
| 2026-04-22 19:29 | 28.43651 | -81.31630 | 108 ft | 12 kts | 11° |
| 2026-04-22 19:29 | 28.43735 | -81.31622 | 108 ft | 13 kts | 342° |
| 2026-04-22 19:29 | 28.43820 | -81.31683 | 110 ft | 15 kts | 339° |
| 2026-04-22 19:29 | 28.43890 | -81.31689 | 110 ft | 7 kts | 348° |
| 2026-04-22 19:30 | 28.43916 | -81.31716 | 110 ft | 9 kts | 298° |
| 2026-04-22 19:30 | 28.43924 | -81.31824 | 113 ft | 12 kts | 291° |
| 2026-04-22 19:30 | 28.43995 | -81.31886 | 115 ft | 14 kts | 343° |
| 2026-04-22 19:30 | 28.44096 | -81.31902 | 114 ft | 15 kts | 4° |
| 2026-04-22 19:31 | 28.44205 | -81.31899 | 112 ft | 16 kts | 360° |
| 2026-04-22 19:31 | 28.44322 | -81.31899 | 112 ft | 17 kts | 0° |
| 2026-04-22 19:31 | 28.44447 | -81.31902 | 109 ft | 18 kts | 358° |
| 2026-04-22 19:31 | 28.44554 | -81.31905 | 108 ft | 14 kts | 359° |
| 2026-04-22 19:32 | 28.44655 | -81.31907 | 106 ft | 15 kts | 359° |
| 2026-04-22 19:32 | 28.44725 | -81.31984 | 106 ft | 17 kts | 305° |
| 2026-04-22 19:32 | 28.44811 | -81.32034 | 107 ft | 13 kts | 326° |
| 2026-04-22 19:32 | 28.44825 | -81.32130 | 106 ft | 11 kts | 264° |
| 2026-04-22 19:33 | 28.44820 | -81.32214 | 105 ft | 6 kts | 266° |
| 2026-04-22 19:33 | 28.44776 | -81.32229 | 107 ft | 8 kts | 179° |
| 2026-04-22 19:33 | 28.44759 | -81.32229 | 107 ft | 0 kts | 179° |
| 2026-04-22 19:33 | 28.44758 | -81.32229 | 107 ft | 2 kts | 179° |
| 2026-04-22 19:34 | 28.44551 | -81.32227 | 110 ft | 66 kts | 179° |
| 2026-04-22 19:34 | 28.43840 | -81.32221 | 115 ft | 135 kts | 179° |
| 2026-04-22 19:34 | 28.42725 | -81.32210 | 213 ft | 173 kts | 178° |
| 2026-04-22 19:34 | 28.41540 | -81.32195 | 910 ft | 170 kts | 174° |
| 2026-04-22 19:35 | 28.40316 | -81.32185 | 1461 ft | 184 kts | 179° |
| 2026-04-22 19:35 | 28.38969 | -81.32263 | 1945 ft | 203 kts | 179° |
| 2026-04-22 19:35 | 28.37508 | -81.32345 | 2511 ft | 216 kts | 179° |
| 2026-04-22 19:35 | 28.35924 | -81.32431 | 2993 ft | 241 kts | 179° |
| 2026-04-22 19:36 | 28.34180 | -81.32529 | 3597 ft | 259 kts | 181° |
| 2026-04-22 19:36 | 28.32384 | -81.32925 | 4441 ft | 268 kts | 196° |
| 2026-04-22 19:36 | 28.30627 | -81.33673 | 5360 ft | 271 kts | 199° |
| 2026-04-22 19:36 | 28.28861 | -81.34460 | 6272 ft | 274 kts | 199° |
| 2026-04-22 19:37 | 28.27076 | -81.35249 | 7143 ft | 277 kts | 199° |
| 2026-04-22 19:37 | 28.25271 | -81.36041 | 7989 ft | 280 kts | 198° |